North Hudson, Wisconsin
Current Conditions -  °F | °C
As of 11:31 PM on Wednesday 26 Nov 2014 (Local Time) from K21D Reporting Station
Scattered Clouds Scattered Clouds  
Wind Chill: -17°   Ceiling: Unl
Heat Index: -10°   Visibility: 10mi
Dew Point: -16°   Wind: 9mph
Humidity: 62%   Direction: 360°N
Pressure: 30.38"   Gusts: NA
Location:  44.9743°N, 92.6899°W
Report Text: K21D 270531Z AUTO 36008KT 10SM SCT055 M10/M16 A3038 RMK AO2
Loading
Personal Weather Stations






























Interactive Weather Map New forecast layout! Learn more

10-Day Weather Forecast

Advertisements
Track Severe Weather on mobile